Time;durP1;ratioP1;P1;durP2;ratioP2;P2;SDS_P1;SDS_P2;PMS_P1;PMS_P2;Temp;Humidity;BMP_temperature;BMP_pressure;BME280_temperature;BME280_humidity;BME280_pressure;Samples;Min_cycle;Max_cycle;Signal;HPM_P1;HPM_P2
2022/06/18 00:00:50;;;;;;;26.47;6.70;;;19.40;18.00;;;;;;4987859;28;20479;-68
2022/06/18 00:03:17;;;;;;;25.13;6.93;;;19.30;18.20;;;;;;4989139;28;20778;-68
2022/06/18 00:05:46;;;;;;;24.13;6.30;;;19.20;18.60;;;;;;4986979;28;20484;-68
2022/06/18 00:08:16;;;;;;;29.67;7.30;;;19.20;18.90;;;;;;4988216;28;20524;-68
2022/06/18 00:10:45;;;;;;;27.83;7.03;;;19.10;19.10;;;;;;4987980;28;20461;-68
2022/06/18 00:13:41;;;;;;;25.63;7.27;;;19.10;19.10;;;;;;4988771;28;20460;-68
2022/06/18 00:16:11;;;;;;;25.27;6.83;;;19.00;19.60;;;;;;4987232;28;20552;-68
2022/06/18 00:18:38;;;;;;;23.80;6.60;;;18.90;20.00;;;;;;4988286;28;20484;-68
2022/06/18 00:21:07;;;;;;;24.00;7.50;;;18.90;20.10;;;;;;4987856;28;20477;-68
2022/06/18 00:23:34;;;;;;;23.67;7.20;;;18.90;20.30;;;;;;4988024;28;20463;-68
2022/06/18 00:26:03;;;;;;;23.90;7.03;;;18.80;20.50;;;;;;4987389;28;20464;-68
2022/06/18 00:28:31;;;;;;;30.93;8.83;;;18.70;21.00;;;;;;4987979;28;20482;-68
2022/06/18 00:30:59;;;;;;;23.93;7.03;;;18.70;21.40;;;;;;4987033;28;21016;-68
2022/06/18 00:33:27;;;;;;;24.80;7.07;;;18.60;21.30;;;;;;4988043;28;20457;-68
2022/06/18 00:35:57;;;;;;;25.93;7.47;;;18.60;21.20;;;;;;4986647;28;20468;-68
2022/06/18 00:38:26;;;;;;;28.70;7.57;;;18.60;21.20;;;;;;4987937;28;20488;-67
2022/06/18 00:40:53;;;;;;;28.33;7.37;;;18.60;21.40;;;;;;4987848;28;20468;-67
2022/06/18 00:43:27;;;;;;;23.30;7.00;;;18.60;21.30;;;;;;4988296;28;20468;-68
2022/06/18 00:46:01;;;;;;;26.20;7.67;;;18.70;21.00;;;;;;4986606;28;20495;-68
2022/06/18 00:48:33;;;;;;;23.30;6.00;;;18.70;20.80;;;;;;4988302;28;20481;-68
2022/06/18 00:51:08;;;;;;;24.13;7.00;;;18.70;21.00;;;;;;4987557;28;20499;-67
2022/06/18 00:53:42;;;;;;;26.70;6.73;;;18.70;21.60;;;;;;4987523;28;20492;-67
2022/06/18 00:56:13;;;;;;;26.93;7.77;;;18.70;21.40;;;;;;4987435;28;20449;-67
2022/06/18 00:58:48;;;;;;;28.77;6.93;;;18.70;21.60;;;;;;4985769;28;20480;-67
2022/06/18 01:01:21;;;;;;;26.43;7.47;;;18.70;21.20;;;;;;4987585;28;20463;-68
2022/06/18 01:03:48;;;;;;;24.90;6.93;;;18.70;20.90;;;;;;4987540;28;20448;-68
2022/06/18 01:06:18;;;;;;;26.27;7.70;;;18.70;21.10;;;;;;4988214;28;20463;-67
2022/06/18 01:08:46;;;;;;;29.43;8.30;;;18.70;21.10;;;;;;4990950;28;20736;-67
2022/06/18 01:11:19;;;;;;;27.37;8.17;;;18.70;21.00;;;;;;4992028;28;20487;-68
2022/06/18 01:13:47;;;;;;;25.50;7.77;;;18.80;21.30;;;;;;4991559;28;20482;-67
2022/06/18 01:16:16;;;;;;;28.17;7.57;;;18.70;21.40;;;;;;4991356;28;20463;-67
2022/06/18 01:18:44;;;;;;;28.80;7.57;;;18.70;21.40;;;;;;4990905;28;20527;-67
2022/06/18 01:21:25;;;;;;;24.67;7.53;;;18.70;21.60;;;;;;4988685;28;20467;-67
2022/06/18 01:23:56;;;;;;;26.10;7.37;;;18.70;22.00;;;;;;4990714;28;20925;-67
2022/06/18 01:26:24;;;;;;;25.90;7.30;;;18.60;22.00;;;;;;4991037;28;20457;-67
2022/06/18 01:28:51;;;;;;;26.90;7.40;;;18.60;22.00;;;;;;4990382;28;20570;-67
2022/06/18 01:31:18;;;;;;;26.10;7.90;;;18.50;22.00;;;;;;4989350;28;20476;-67
2022/06/18 01:33:46;;;;;;;25.77;7.60;;;18.50;21.90;;;;;;4989815;28;20468;-67
2022/06/18 01:36:14;;;;;;;24.80;6.73;;;18.50;21.80;;;;;;4991004;28;20452;-67
2022/06/18 01:38:44;;;;;;;26.67;7.10;;;18.50;22.10;;;;;;4990921;28;20481;-67
2022/06/18 01:44:08;;;;;;;24.23;7.00;;;18.50;22.30;;;;;;4989347;28;20455;-67
2022/06/18 01:46:37;;;;;;;25.67;7.73;;;18.40;23.10;;;;;;4991354;28;20837;-67
2022/06/18 01:49:08;;;;;;;24.47;8.00;;;18.30;23.10;;;;;;4991079;28;20493;-67
2022/06/18 01:51:38;;;;;;;25.93;7.07;;;18.30;23.30;;;;;;4990296;28;21003;-67
2022/06/18 01:54:10;;;;;;;27.90;9.03;;;18.20;23.20;;;;;;4987347;28;20674;-67
2022/06/18 01:56:41;;;;;;;30.10;9.00;;;18.20;23.30;;;;;;4990292;28;20445;-67
2022/06/18 01:59:14;;;;;;;25.43;7.70;;;18.20;23.10;;;;;;4991058;28;20477;-67
2022/06/18 02:01:44;;;;;;;28.57;8.03;;;18.20;23.20;;;;;;4989324;28;20464;-67
2022/06/18 02:04:13;;;;;;;26.70;8.23;;;18.10;23.60;;;;;;4990246;28;20471;-67
2022/06/18 02:06:40;;;;;;;28.07;10.00;;;18.10;23.90;;;;;;4989608;28;20468;-67
2022/06/18 02:09:12;;;;;;;28.73;9.63;;;18.10;23.80;;;;;;4990672;28;20491;-67
2022/06/18 02:11:40;;;;;;;25.10;8.30;;;18.10;23.80;;;;;;4990950;28;20484;-67
2022/06/18 02:14:11;;;;;;;28.13;8.13;;;18.00;23.60;;;;;;4989061;28;20531;-67
2022/06/18 02:16:42;;;;;;;29.93;8.93;;;18.00;24.10;;;;;;4988990;28;20464;-67
2022/06/18 02:19:10;;;;;;;27.60;9.10;;;17.90;24.50;;;;;;4989326;28;20488;-67
2022/06/18 02:21:42;;;;;;;26.90;8.57;;;17.80;24.80;;;;;;4990531;28;20540;-67
2022/06/18 02:24:10;;;;;;;28.03;9.20;;;17.80;24.70;;;;;;4990164;28;20460;-67
2022/06/18 02:26:40;;;;;;;26.50;8.73;;;17.80;24.50;;;;;;4988893;28;20765;-67
2022/06/18 02:29:16;;;;;;;26.10;8.83;;;17.80;24.50;;;;;;4990097;28;20480;-67
2022/06/18 02:31:45;;;;;;;27.13;8.87;;;17.80;24.90;;;;;;4989031;28;20538;-67
2022/06/18 02:34:16;;;;;;;24.97;8.80;;;17.80;25.00;;;;;;4990163;28;20548;-67
2022/06/18 02:36:43;;;;;;;26.50;9.40;;;17.80;25.40;;;;;;4988609;28;20503;-67
2022/06/18 02:39:18;;;;;;;27.00;9.03;;;17.80;25.40;;;;;;4990729;28;20841;-67
2022/06/18 02:41:46;;;;;;;31.57;8.53;;;17.80;25.90;;;;;;4988958;28;20460;-67
2022/06/18 02:44:16;;;;;;;29.50;9.80;;;17.80;25.50;;;;;;4988442;28;20468;-67
2022/06/18 02:46:43;;;;;;;27.97;9.23;;;17.80;25.70;;;;;;4988551;28;20507;-67
2022/06/18 02:49:13;;;;;;;28.37;9.87;;;17.80;25.80;;;;;;4988238;28;20484;-67
2022/06/18 02:51:40;;;;;;;33.37;9.83;;;17.80;25.50;;;;;;4989473;28;20464;-67
2022/06/18 02:54:08;;;;;;;28.37;8.80;;;17.80;25.40;;;;;;4980865;28;20582;-67
2022/06/18 02:56:34;;;;;;;27.00;8.70;;;17.80;25.40;;;;;;4971187;28;20844;-67
2022/06/18 02:59:05;;;;;;;27.53;8.73;;;17.70;25.20;;;;;;4989998;28;20766;-67
2022/06/18 03:01:33;;;;;;;27.30;8.63;;;17.70;25.40;;;;;;4988972;28;20508;-67
2022/06/18 03:04:03;;;;;;;28.63;8.30;;;17.80;25.10;;;;;;4989398;28;20469;-67
2022/06/18 03:06:31;;;;;;;27.80;8.53;;;17.70;25.40;;;;;;4989102;28;20471;-67
2022/06/18 03:08:58;;;;;;;30.37;9.23;;;17.70;25.00;;;;;;4988376;28;20484;-67
2022/06/18 03:14:14;;;;;;;29.33;8.40;;;17.70;24.80;;;;;;4989178;28;20475;-67
2022/06/18 03:16:44;;;;;;;29.73;8.50;;;17.60;25.00;;;;;;4989212;28;20689;-67
2022/06/18 03:19:57;;;;;;;30.03;8.57;;;17.60;25.10;;;;;;4987702;28;20491;-67
2022/06/18 03:22:24;;;;;;;41.10;9.83;;;17.60;25.00;;;;;;4989155;28;20493;-67
2022/06/18 03:24:51;;;;;;;27.53;7.90;;;17.60;25.10;;;;;;4988824;28;20804;-67
2022/06/18 03:27:19;;;;;;;27.90;8.83;;;17.50;25.40;;;;;;4987690;28;20491;-67
2022/06/18 03:29:46;;;;;;;27.93;8.80;;;17.50;25.70;;;;;;4986686;28;20487;-67
2022/06/18 03:32:14;;;;;;;29.13;8.33;;;17.40;26.10;;;;;;4988100;28;21004;-67
2022/06/18 03:34:41;;;;;;;25.93;7.47;;;17.30;26.20;;;;;;4988869;28;20469;-67
2022/06/18 03:37:08;;;;;;;27.40;8.80;;;17.30;26.10;;;;;;4988723;28;20465;-67
2022/06/18 03:39:35;;;;;;;29.73;8.57;;;17.30;26.00;;;;;;4987372;28;20488;-67
2022/06/18 03:42:02;;;;;;;27.83;8.67;;;17.30;25.90;;;;;;4988509;28;20479;-67
2022/06/18 03:45:03;;;;;;;27.87;8.27;;;17.30;26.40;;;;;;4988698;28;20957;-67
2022/06/18 03:47:31;;;;;;;26.57;8.73;;;17.30;26.90;;;;;;4987715;28;20459;-67
2022/06/18 03:49:58;;;;;;;30.30;9.50;;;17.30;26.50;;;;;;4986358;28;20480;-67
2022/06/18 03:52:24;;;;;;;29.50;9.27;;;17.30;26.80;;;;;;4988017;28;20480;-67
2022/06/18 03:54:51;;;;;;;26.10;8.27;;;17.30;26.80;;;;;;4988201;28;20461;-67
2022/06/18 03:57:19;;;;;;;25.83;8.90;;;17.30;26.80;;;;;;4989153;28;20457;-67
2022/06/18 03:59:46;;;;;;;27.07;7.93;;;17.30;27.00;;;;;;4987092;28;20480;-67
2022/06/18 04:02:13;;;;;;;26.90;7.97;;;17.40;27.10;;;;;;4987441;28;20465;-67
2022/06/18 04:04:41;;;;;;;27.00;10.13;;;17.40;27.30;;;;;;4987322;28;20461;-67
2022/06/18 04:07:15;;;;;;;26.90;8.33;;;17.40;27.70;;;;;;4987660;28;20460;-67
2022/06/18 04:09:43;;;;;;;27.50;9.13;;;17.40;28.00;;;;;;4987377;28;20481;-67
2022/06/18 04:12:10;;;;;;;25.83;8.90;;;17.40;27.90;;;;;;4988669;28;20539;-67
2022/06/18 04:14:37;;;;;;;26.80;8.10;;;17.40;28.00;;;;;;4988727;28;20468;-67
2022/06/18 04:17:04;;;;;;;25.90;8.03;;;17.50;28.30;;;;;;4988326;28;20490;-67
2022/06/18 04:19:31;;;;;;;27.40;8.90;;;17.50;28.00;;;;;;4988212;28;21024;-67
2022/06/18 04:21:59;;;;;;;30.00;8.03;;;17.60;28.00;;;;;;4987022;28;20472;-67
2022/06/18 04:24:26;;;;;;;29.00;9.30;;;17.70;27.80;;;;;;4988495;28;20457;-67
2022/06/18 04:26:54;;;;;;;27.63;7.83;;;17.80;27.40;;;;;;4988283;28;20457;-67
2022/06/18 04:29:21;;;;;;;27.13;8.00;;;17.90;27.60;;;;;;4988504;28;20485;-67
2022/06/18 04:31:48;;;;;;;28.70;7.70;;;18.00;27.60;;;;;;4985907;28;20580;-67
2022/06/18 04:34:14;;;;;;;27.90;7.77;;;18.30;27.40;;;;;;4987868;28;20491;-67
2022/06/18 04:36:42;;;;;;;28.77;7.20;;;18.90;26.30;;;;;;4987923;28;20453;-67
2022/06/18 04:39:11;;;;;;;30.27;8.20;;;19.60;24.60;;;;;;4987693;28;21037;-67
2022/06/18 04:41:38;;;;;;;32.93;8.10;;;20.40;22.70;;;;;;4987656;28;20979;-67
2022/06/18 04:44:05;;;;;;;33.07;7.87;;;21.00;20.50;;;;;;4991633;28;20636;-67
2022/06/18 04:46:32;;;;;;;31.50;7.17;;;21.60;19.20;;;;;;4991939;28;20464;-67
2022/06/18 04:48:59;;;;;;;31.00;7.33;;;22.30;18.10;;;;;;4991909;28;20476;-67
2022/06/18 04:51:26;;;;;;;30.90;8.30;;;22.80;16.90;;;;;;4990648;28;20456;-67
2022/06/18 04:53:53;;;;;;;31.90;7.10;;;23.30;15.90;;;;;;4991871;28;20496;-67
2022/06/18 04:56:22;;;;;;;32.70;7.20;;;23.80;14.90;;;;;;4991364;28;20468;-67
2022/06/18 04:58:49;;;;;;;29.80;6.90;;;24.20;14.20;;;;;;4991490;28;20481;-67
2022/06/18 05:01:17;;;;;;;31.30;7.10;;;24.50;13.60;;;;;;4991277;28;20868;-67
2022/06/18 05:03:45;;;;;;;30.47;6.67;;;25.10;12.90;;;;;;4990652;28;20516;-68
2022/06/18 05:06:12;;;;;;;31.47;6.77;;;25.70;11.70;;;;;;4991866;28;20466;-67
2022/06/18 05:08:39;;;;;;;29.47;6.10;;;26.20;10.70;;;;;;4992020;28;20480;-67
2022/06/18 05:11:06;;;;;;;32.00;6.97;;;26.80;9.30;;;;;;4991731;28;20488;-67
2022/06/18 05:13:34;;;;;;;33.20;7.33;;;27.30;8.10;;;;;;4989662;28;20507;-67
2022/06/18 05:16:01;;;;;;;32.00;6.87;;;27.80;7.10;;;;;;4991019;28;20838;-67
2022/06/18 05:18:33;;;;;;;28.70;6.07;;;28.30;6.00;;;;;;4991374;28;20480;-68
2022/06/18 05:20:59;;;;;;;28.97;6.03;;;28.80;5.20;;;;;;4991302;28;20460;-68
2022/06/18 05:23:27;;;;;;;31.37;5.80;;;29.40;4.80;;;;;;4989893;28;20750;-68
2022/06/18 05:25:57;;;;;;;29.63;6.40;;;29.80;3.80;;;;;;4991104;28;20470;-68
2022/06/18 05:28:24;;;;;;;31.97;6.40;;;30.20;4.10;;;;;;4991357;28;20476;-68
2022/06/18 05:30:52;;;;;;;29.17;6.30;;;30.60;3.40;;;;;;4989151;28;20929;-68
2022/06/18 05:33:19;;;;;;;28.47;5.80;;;31.10;3.00;;;;;;4991230;28;20484;-68
2022/06/18 05:35:46;;;;;;;28.30;5.50;;;31.50;2.20;;;;;;4991204;28;20457;-68
2022/06/18 05:38:15;;;;;;;28.40;5.10;;;32.00;2.00;;;;;;4990609;28;21041;-68
2022/06/18 05:40:42;;;;;;;29.47;5.07;;;32.50;1.00;;;;;;4990909;28;20957;-68
2022/06/18 05:43:09;;;;;;;27.03;4.73;;;33.20;1.00;;;;;;4989830;28;20468;-68
2022/06/18 05:45:36;;;;;;;27.43;4.47;;;33.80;1.00;;;;;;4991362;28;20467;-68
2022/06/18 05:48:05;;;;;;;29.40;4.60;;;34.30;1.00;;;;;;4991160;28;20842;-69
2022/06/18 05:50:32;;;;;;;29.47;5.10;;;34.90;1.00;;;;;;4991133;28;20867;-69
2022/06/18 05:52:58;;;;;;;26.93;4.33;;;35.30;1.00;;;;;;4989098;28;20504;-68
2022/06/18 05:55:25;;;;;;;27.33;4.33;;;35.80;1.00;;;;;;4990304;28;21146;-68
2022/06/18 05:57:55;;;;;;;26.60;4.33;;;36.40;1.00;;;;;;4990773;28;20464;-69
2022/06/18 06:00:24;;;;;;;26.97;4.57;;;36.90;1.00;;;;;;4989952;28;20465;-69
2022/06/18 06:02:51;;;;;;;25.00;4.10;;;37.40;1.00;;;;;;4988797;28;20467;-69
2022/06/18 06:05:20;;;;;;;26.40;4.47;;;37.90;1.00;;;;;;4990291;28;20461;-69
2022/06/18 06:07:48;;;;;;;27.80;4.30;;;38.40;1.00;;;;;;4990709;28;20468;-69
2022/06/18 06:13:06;;;;;;;24.70;3.97;;;39.30;1.00;;;;;;4989187;28;21105;-69
2022/06/18 06:15:33;;;;;;;24.73;3.90;;;39.80;1.00;;;;;;4990909;28;20460;-69
2022/06/18 06:17:59;;;;;;;25.40;4.43;;;40.40;1.00;;;;;;4990750;28;20464;-69
2022/06/18 06:20:30;;;;;;;24.97;3.50;;;40.90;1.00;;;;;;4991385;28;20464;-69
2022/06/18 06:22:57;;;;;;;24.50;4.13;;;41.40;1.00;;;;;;4988621;28;20471;-69
2022/06/18 06:25:24;;;;;;;25.40;4.00;;;42.10;1.00;;;;;;4989526;28;20945;-69
2022/06/18 06:27:50;;;;;;;24.00;4.00;;;42.60;1.00;;;;;;4990676;28;20840;-69
2022/06/18 06:30:18;;;;;;;23.67;3.70;;;43.00;1.00;;;;;;4989093;28;20464;-70
2022/06/18 06:32:46;;;;;;;23.40;3.50;;;43.20;1.00;;;;;;4989718;28;20465;-69
2022/06/18 06:35:13;;;;;;;23.73;3.63;;;43.80;1.00;;;;;;4988613;28;20559;-69
2022/06/18 06:37:42;;;;;;;23.37;3.17;;;44.30;1.00;;;;;;4990331;28;20790;-70
2022/06/18 06:40:11;;;;;;;23.43;3.43;;;44.80;1.00;;;;;;4989798;28;20997;-69
2022/06/18 06:42:42;;;;;;;22.37;3.17;;;45.30;1.00;;;;;;4989325;28;20462;-69
2022/06/18 06:45:13;;;;;;;23.00;3.90;;;45.80;1.00;;;;;;4988661;28;20465;-69
2022/06/18 06:47:40;;;;;;;23.53;3.50;;;46.20;1.00;;;;;;4989491;28;20953;-70
2022/06/18 06:50:09;;;;;;;23.43;3.10;;;46.70;1.00;;;;;;4990397;28;20548;-70
2022/06/18 06:52:36;;;;;;;24.90;3.20;;;47.10;1.00;;;;;;4989541;28;20715;-70
2022/06/18 06:57:50;;;;;;;26.20;3.60;;;47.80;1.00;;;;;;4989421;28;20469;-70
2022/06/18 07:00:17;;;;;;;22.20;3.33;;;48.20;1.00;;;;;;4988588;28;20461;-70
2022/06/18 07:02:44;;;;;;;22.13;3.10;;;48.50;1.00;;;;;;4989354;28;20461;-70
2022/06/18 07:05:13;;;;;;;25.97;2.90;;;48.80;1.00;;;;;;4987606;28;20523;-70
2022/06/18 07:07:39;;;;;;;21.00;2.90;;;49.10;1.00;;;;;;4989634;28;20464;-70
2022/06/18 07:10:10;;;;;;;21.83;2.97;;;49.40;1.00;;;;;;4988962;28;20472;-70
2022/06/18 07:12:38;;;;;;;21.43;3.33;;;49.90;1.00;;;;;;4989363;28;20461;-70
2022/06/18 07:15:06;;;;;;;22.60;3.40;;;50.10;1.00;;;;;;4987299;28;20480;-70
2022/06/18 07:17:33;;;;;;;21.77;3.00;;;50.30;1.00;;;;;;4989005;28;20456;-70
2022/06/18 07:20:00;;;;;;;22.07;3.60;;;50.50;1.00;;;;;;4988842;28;20491;-69
2022/06/18 07:22:27;;;;;;;21.63;2.90;;;50.60;1.00;;;;;;4988694;28;20461;-70
2022/06/18 07:24:55;;;;;;;23.43;3.00;;;51.00;1.00;;;;;;4989391;28;20465;-70
2022/06/18 07:27:23;;;;;;;21.80;3.10;;;51.30;1.00;;;;;;4987351;28;20475;-70
2022/06/18 07:29:50;;;;;;;21.10;2.90;;;51.50;1.00;;;;;;4988398;28;20490;-70
2022/06/18 07:32:19;;;;;;;20.20;3.20;;;51.90;1.00;;;;;;4980509;28;20849;-69
2022/06/18 07:34:46;;;;;;;22.10;3.17;;;52.30;1.00;;;;;;4987418;28;21079;-69
2022/06/18 07:37:13;;;;;;;20.80;3.07;;;52.70;1.00;;;;;;4986501;28;20499;-69
2022/06/18 07:39:40;;;;;;;20.40;3.00;;;53.20;1.00;;;;;;4986304;28;20487;-70
2022/06/18 07:42:08;;;;;;;22.17;2.60;;;53.60;1.00;;;;;;4977003;28;20489;-70
2022/06/18 07:44:36;;;;;;;20.23;2.73;;;53.80;1.00;;;;;;4981480;28;20527;-70
2022/06/18 07:47:03;;;;;;;21.23;2.90;;;54.00;1.00;;;;;;4982242;28;20471;-70
2022/06/18 07:49:30;;;;;;;20.23;3.00;;;54.40;1.00;;;;;;4987621;28;20480;-70
2022/06/18 07:51:57;;;;;;;20.60;2.97;;;54.60;1.00;;;;;;4984188;28;20536;-70
2022/06/18 07:54:24;;;;;;;19.43;3.07;;;54.90;1.00;;;;;;4980451;28;20584;-69
2022/06/18 07:56:51;;;;;;;19.40;2.30;;;55.30;1.00;;;;;;4972577;28;20460;-70
2022/06/18 07:59:18;;;;;;;18.80;2.67;;;55.60;1.00;;;;;;4988739;28;20488;-70
2022/06/18 08:01:47;;;;;;;19.93;2.53;;;55.80;1.00;;;;;;4986336;28;20559;-70
2022/06/18 08:04:13;;;;;;;19.57;2.53;;;55.90;1.00;;;;;;4988116;28;20627;-70
2022/06/18 08:06:40;;;;;;;18.50;2.47;;;56.50;1.00;;;;;;4988408;28;20563;-70
2022/06/18 08:09:08;;;;;;;20.10;2.90;;;56.70;1.00;;;;;;4987114;28;21292;-70
2022/06/18 08:11:37;;;;;;;19.13;2.90;;;56.80;1.00;;;;;;4984573;28;20475;-70
2022/06/18 08:14:05;;;;;;;19.90;2.40;;;57.00;1.00;;;;;;4984899;28;20484;-69
2022/06/18 08:16:32;;;;;;;18.90;2.53;;;57.20;1.00;;;;;;4984088;28;20455;-70
2022/06/18 08:19:00;;;;;;;21.73;2.60;;;57.40;1.00;;;;;;4986507;28;20996;-70
2022/06/18 08:21:30;;;;;;;19.10;2.50;;;57.90;1.00;;;;;;4982831;28;20678;-70
2022/06/18 08:24:02;;;;;;;20.20;2.57;;;58.00;1.00;;;;;;4988428;28;20197;-70
2022/06/18 08:26:30;;;;;;;18.77;2.60;;;58.20;1.00;;;;;;4983147;28;20198;-70
2022/06/18 08:28:57;;;;;;;19.02;2.30;;;58.30;1.00;;;;;;4984263;28;20228;-70
2022/06/18 08:31:24;;;;;;;18.13;2.60;;;58.10;1.00;;;;;;4986644;28;20225;-70
2022/06/18 08:33:50;;;;;;;18.35;2.05;;;58.40;1.00;;;;;;4984938;28;20221;-70
2022/06/18 08:36:18;;;;;;;18.30;2.33;;;58.80;1.00;;;;;;4977161;28;20212;-70
2022/06/18 08:38:49;;;;;;;17.67;2.30;;;58.70;1.00;;;;;;4977881;28;20229;-70
2022/06/18 08:41:42;;;;;;;17.98;2.33;;;59.10;1.00;;;;;;4988154;28;20197;-70
2022/06/18 08:44:30;;;;;;;22.05;3.08;;;58.90;1.00;;;;;;4980975;28;20204;-70
2022/06/18 08:47:08;;;;;;;17.92;2.35;;;58.70;1.00;;;;;;4983793;28;20185;-70
2022/06/18 08:49:57;;;;;;;18.27;2.20;;;58.60;1.00;;;;;;4981318;28;20592;-70
2022/06/18 08:52:44;;;;;;;19.38;2.45;;;58.60;1.00;;;;;;4984139;28;20209;-70
2022/06/18 08:55:20;;;;;;;18.60;2.08;;;58.60;1.00;;;;;;4988666;28;20213;-70
2022/06/18 08:57:54;;;;;;;17.77;2.20;;;58.70;1.00;;;;;;4988818;28;20189;-70
2022/06/18 09:00:29;;;;;;;18.08;2.50;;;59.10;1.00;;;;;;4977620;28;20219;-70
2022/06/18 09:03:00;;;;;;;19.35;2.50;;;59.20;1.00;;;;;;4986986;28;20201;-70
2022/06/18 09:05:36;;;;;;;19.10;2.28;;;59.40;1.00;;;;;;4988783;28;20205;-70
2022/06/18 09:08:23;;;;;;;17.95;2.20;;;59.60;1.00;;;;;;4987817;28;20196;-70
2022/06/18 09:11:07;;;;;;;17.95;2.10;;;59.40;1.00;;;;;;4986763;28;20855;-70
2022/06/18 09:13:38;;;;;;;19.08;2.10;;;59.10;1.00;;;;;;4976250;28;20240;-69
2022/06/18 09:16:10;;;;;;;17.60;2.00;;;58.80;1.00;;;;;;4987738;28;20185;-70
2022/06/18 09:18:42;;;;;;;17.95;2.30;;;58.30;1.00;;;;;;4988230;28;20217;-70
2022/06/18 09:21:14;;;;;;;19.67;2.23;;;56.90;1.00;;;;;;4986173;28;20204;-70
2022/06/18 09:23:46;;;;;;;19.10;2.30;;;55.20;1.00;;;;;;4971510;28;20228;-70
2022/06/18 09:26:17;;;;;;;19.07;2.60;;;53.20;1.00;;;;;;4986776;28;21019;-70
2022/06/18 09:28:52;;;;;;;19.37;2.63;;;51.40;1.00;;;;;;4990760;28;20483;-70
2022/06/18 09:31:25;;;;;;;19.97;2.93;;;49.90;1.00;;;;;;4991186;28;20848;-70
2022/06/18 09:33:58;;;;;;;22.27;2.60;;;48.40;1.00;;;;;;4992016;28;20468;-70
2022/06/18 09:36:29;;;;;;;20.80;2.40;;;47.20;1.00;;;;;;4993243;28;20440;-70
2022/06/18 09:39:06;;;;;;;21.40;3.00;;;46.10;1.00;;;;;;4992731;28;20500;-70
2022/06/18 09:41:40;;;;;;;28.60;2.90;;;45.00;1.00;;;;;;4993389;28;20552;-69
2022/06/18 09:44:14;;;;;;;22.10;3.60;;;44.10;1.00;;;;;;4991160;28;20452;-69
2022/06/18 09:46:45;;;;;;;21.70;2.43;;;43.20;1.00;;;;;;4992753;28;20452;-69
2022/06/18 09:49:12;;;;;;;23.80;2.90;;;42.50;1.00;;;;;;4992598;28;20472;-69
2022/06/18 09:51:44;;;;;;;23.07;2.80;;;42.00;1.00;;;;;;4992516;28;20456;-69
2022/06/18 09:54:15;;;;;;;22.23;2.93;;;41.40;1.00;;;;;;4992282;28;20536;-69
2022/06/18 09:56:47;;;;;;;22.50;3.10;;;41.00;1.00;;;;;;4990477;28;20472;-69
2022/06/18 09:59:18;;;;;;;24.43;3.60;;;40.50;1.00;;;;;;4990808;28;20484;-69
2022/06/18 10:01:47;;;;;;;24.77;3.50;;;40.20;1.00;;;;;;4991536;28;20484;-69
2022/06/18 10:07:06;;;;;;;26.10;3.70;;;39.40;1.00;;;;;;4990540;28;20576;-68
2022/06/18 10:09:39;;;;;;;27.10;3.63;;;39.00;1.00;;;;;;4991935;28;20481;-69
2022/06/18 10:12:16;;;;;;;27.73;4.00;;;38.60;1.00;;;;;;4990926;28;20966;-69
2022/06/18 10:14:44;;;;;;;23.10;3.30;;;38.40;1.00;;;;;;4992618;28;20484;-69
2022/06/18 10:17:21;;;;;;;25.33;4.57;;;38.20;1.00;;;;;;4989390;28;20461;-69
2022/06/18 10:20:01;;;;;;;24.50;3.60;;;38.00;1.00;;;;;;4991202;28;20568;-69
2022/06/18 10:22:36;;;;;;;23.80;4.90;;;37.90;1.00;;;;;;4989836;28;20577;-69
2022/06/18 10:25:12;;;;;;;23.20;3.47;;;37.70;1.00;;;;;;4992106;28;20464;-69
2022/06/18 10:27:46;;;;;;;23.03;3.67;;;37.50;1.00;;;;;;4989359;28;20456;-69
2022/06/18 10:30:20;;;;;;;26.50;4.00;;;37.30;1.00;;;;;;4989866;28;20491;-69
2022/06/18 10:32:55;;;;;;;24.57;4.17;;;37.20;1.00;;;;;;4990148;28;20461;-69
2022/06/18 10:35:38;;;;;;;25.17;3.77;;;37.00;1.00;;;;;;4990780;28;20500;-69
2022/06/18 10:38:28;;;;;;;24.00;3.90;;;36.80;1.00;;;;;;4988999;28;20465;-69
2022/06/18 10:41:05;;;;;;;24.60;4.33;;;36.60;1.00;;;;;;4990442;28;20452;-69
2022/06/18 10:44:06;;;;;;;25.30;4.27;;;36.50;1.00;;;;;;4991297;28;20470;-69
2022/06/18 10:46:33;;;;;;;24.60;4.27;;;36.40;1.00;;;;;;4984593;28;20466;-69
2022/06/18 10:49:02;;;;;;;23.60;3.80;;;36.40;1.00;;;;;;4990588;28;20884;-68
2022/06/18 10:51:35;;;;;;;24.37;4.00;;;36.40;1.00;;;;;;4990871;28;20961;-69
2022/06/18 10:54:02;;;;;;;25.47;3.60;;;36.40;1.00;;;;;;4991453;28;20457;-69
2022/06/18 10:56:32;;;;;;;24.70;3.93;;;36.30;1.00;;;;;;4991074;28;20829;-69
2022/06/18 10:59:01;;;;;;;25.80;4.47;;;36.10;1.00;;;;;;4990438;28;20981;-69
2022/06/18 11:01:32;;;;;;;23.67;3.70;;;36.10;1.00;;;;;;4988586;28;20483;-69
2022/06/18 11:04:00;;;;;;;24.70;4.27;;;36.00;1.00;;;;;;4990442;28;20492;-68
2022/06/18 11:06:28;;;;;;;28.20;4.10;;;35.90;1.00;;;;;;4989803;28;20468;-69
2022/06/18 11:08:57;;;;;;;25.10;4.00;;;35.80;1.00;;;;;;4991328;28;20534;-69
2022/06/18 11:11:28;;;;;;;25.20;4.17;;;35.60;1.00;;;;;;4988988;28;20461;-69
2022/06/18 11:14:18;;;;;;;24.27;3.90;;;35.40;1.00;;;;;;4988621;28;20464;-69
2022/06/18 11:16:47;;;;;;;25.83;4.43;;;35.30;1.00;;;;;;4982880;28;20457;-69
2022/06/18 11:19:17;;;;;;;25.90;4.13;;;35.10;1.00;;;;;;4987975;28;21024;-69
2022/06/18 11:21:44;;;;;;;25.90;4.17;;;35.10;1.00;;;;;;4989745;28;20437;-68
2022/06/18 11:24:24;;;;;;;25.10;4.00;;;35.00;1.00;;;;;;4989141;28;20500;-69
2022/06/18 11:26:58;;;;;;;28.60;4.87;;;34.80;1.00;;;;;;4986839;28;20761;-68
2022/06/18 11:29:33;;;;;;;25.20;4.10;;;34.80;1.00;;;;;;4988106;28;20484;-69
2022/06/18 11:32:02;;;;;;;24.80;3.77;;;34.70;1.00;;;;;;4988523;28;20468;-68
2022/06/18 11:34:35;;;;;;;27.50;3.93;;;34.70;1.00;;;;;;4989147;28;21071;-69
2022/06/18 11:37:14;;;;;;;24.93;3.27;;;34.60;1.00;;;;;;4990358;28;20464;-69
2022/06/18 11:39:42;;;;;;;25.83;3.93;;;34.60;1.00;;;;;;4985820;28;21045;-69
2022/06/18 11:42:17;;;;;;;25.20;4.03;;;34.60;1.00;;;;;;4986140;28;20523;-68
2022/06/18 11:44:53;;;;;;;26.60;3.90;;;34.50;1.00;;;;;;4986716;28;20452;-68
2022/06/18 11:47:26;;;;;;;26.47;4.43;;;34.50;1.00;;;;;;4982221;28;20471;-68
2022/06/18 11:49:59;;;;;;;25.80;4.40;;;34.40;1.00;;;;;;4984490;28;21186;-68
2022/06/18 11:52:36;;;;;;;29.30;5.30;;;34.40;1.00;;;;;;4986926;28;20489;-68
2022/06/18 11:55:14;;;;;;;26.83;4.73;;;34.30;1.00;;;;;;4985498;28;20498;-68
2022/06/18 11:57:45;;;;;;;28.40;3.83;;;34.20;1.00;;;;;;4987170;28;20440;-69
2022/06/18 12:00:19;;;;;;;26.93;4.77;;;34.00;1.00;;;;;;4986026;28;20560;-68
2022/06/18 12:02:52;;;;;;;28.27;4.50;;;33.90;1.00;;;;;;4987802;28;20908;-68
2022/06/18 12:05:27;;;;;;;30.40;4.57;;;33.80;1.00;;;;;;4988027;28;20468;-68
2022/06/18 12:07:57;;;;;;;29.83;4.20;;;33.70;1.00;;;;;;4987585;28;20617;-68
2022/06/18 12:10:36;;;;;;;28.60;4.60;;;33.60;1.00;;;;;;4987626;28;20519;-68
2022/06/18 12:13:14;;;;;;;26.77;4.47;;;33.50;1.00;;;;;;4988033;28;20464;-68
2022/06/18 12:15:48;;;;;;;32.23;5.47;;;33.50;1.00;;;;;;4986483;28;20489;-68
2022/06/18 12:18:22;;;;;;;27.57;5.00;;;33.40;1.00;;;;;;4986711;28;20489;-68
2022/06/18 12:21:05;;;;;;;29.77;4.57;;;33.30;1.00;;;;;;4987012;28;20469;-68
2022/06/18 12:23:45;;;;;;;25.80;4.83;;;33.30;1.00;;;;;;4987495;28;20441;-68
2022/06/18 12:26:19;;;;;;;29.70;4.70;;;33.20;1.00;;;;;;4987401;28;20444;-68
2022/06/18 12:29:01;;;;;;;28.63;5.73;;;33.20;1.00;;;;;;4986781;28;20477;-68
2022/06/18 12:31:35;;;;;;;30.70;4.70;;;33.20;1.00;;;;;;4985567;28;20480;-68
2022/06/18 12:34:09;;;;;;;28.87;4.67;;;33.30;1.00;;;;;;4987930;28;20445;-68
2022/06/18 12:36:42;;;;;;;27.50;5.07;;;33.30;1.00;;;;;;4987595;28;20468;-68
2022/06/18 12:39:18;;;;;;;25.70;4.40;;;33.40;1.00;;;;;;4987815;28;20520;-69
2022/06/18 12:41:51;;;;;;;29.30;4.80;;;33.40;1.00;;;;;;4987007;28;20806;-68
2022/06/18 12:44:30;;;;;;;27.33;4.70;;;33.40;1.00;;;;;;4987755;28;20997;-68
2022/06/18 12:47:04;;;;;;;28.27;4.53;;;33.30;1.00;;;;;;4987162;28;20445;-68
2022/06/18 12:49:37;;;;;;;32.90;4.90;;;33.30;1.00;;;;;;4987666;28;20496;-68
2022/06/18 12:52:15;;;;;;;31.60;5.43;;;33.20;1.00;;;;;;4986502;28;20475;-68
2022/06/18 12:54:58;;;;;;;31.80;4.73;;;33.10;1.00;;;;;;4987798;28;20456;-68
2022/06/18 12:57:33;;;;;;;32.53;5.10;;;33.00;1.00;;;;;;4967195;28;20509;-68
2022/06/18 13:00:06;;;;;;;32.70;4.50;;;32.90;1.00;;;;;;4986767;28;20492;-68
2022/06/18 13:02:52;;;;;;;36.13;5.67;;;32.90;1.00;;;;;;4988014;28;20468;-68
2022/06/18 13:05:32;;;;;;;29.90;5.20;;;32.90;1.00;;;;;;4977080;28;20891;-68
2022/06/18 13:08:08;;;;;;;29.30;4.97;;;32.80;1.00;;;;;;4991625;28;20850;-68
2022/06/18 13:10:50;;;;;;;31.37;5.67;;;32.70;1.00;;;;;;4989470;28;20460;-68
2022/06/18 13:13:30;;;;;;;31.20;4.70;;;32.60;1.00;;;;;;4991270;28;20452;-68
2022/06/18 13:16:03;;;;;;;31.57;5.00;;;32.60;1.00;;;;;;4990223;28;20895;-68